createdAt,value
2023-02-27T00:00:18.513Z,8.13
2023-02-27T00:02:46.981Z,9.15
2023-02-27T00:05:15.052Z,6.95
2023-02-27T00:07:42.753Z,6.82
2023-02-27T00:10:11.268Z,8.63
2023-02-27T00:12:40.252Z,7.97
2023-02-27T00:15:09.587Z,9.07
2023-02-27T00:17:37.253Z,7.65
2023-02-27T00:20:05.808Z,8.50
2023-02-27T00:22:33.263Z,7.10
2023-02-27T00:25:00.851Z,6.15
2023-02-27T00:27:28.344Z,8.27
2023-02-27T00:29:57.197Z,9.75
2023-02-27T00:32:24.854Z,11.07
2023-02-27T00:34:52.733Z,8.60
2023-02-27T00:37:20.230Z,8.90
2023-02-27T00:39:47.805Z,6.90
2023-02-27T00:42:15.306Z,11.82
2023-02-27T00:44:43.037Z,9.23
2023-02-27T00:47:11.896Z,10.35
2023-02-27T00:49:39.511Z,10.23
2023-02-27T00:52:07.037Z,9.48
2023-02-27T00:54:34.571Z,10.25
2023-02-27T00:57:02.081Z,9.88
2023-02-27T00:59:29.582Z,9.18
2023-02-27T01:01:57.208Z,9.85
2023-02-27T01:04:26.093Z,11.35
2023-02-27T01:06:54.040Z,10.07
2023-02-27T01:09:21.671Z,11.25
2023-02-27T01:11:49.209Z,10.90
2023-02-27T01:14:16.710Z,9.13
2023-02-27T01:16:44.374Z,9.38
2023-02-27T01:19:11.944Z,9.10
2023-02-27T01:21:42.125Z,9.60
2023-02-27T01:24:09.801Z,8.48
2023-02-27T01:26:37.577Z,12.50
2023-02-27T01:29:06.581Z,12.13
2023-02-27T01:31:34.276Z,11.25
2023-02-27T01:34:01.885Z,12.80
2023-02-27T01:36:29.493Z,12.68
2023-02-27T01:38:58.352Z,13.32
2023-02-27T01:41:26.277Z,13.68
2023-02-27T01:43:55.232Z,11.07
2023-02-27T01:46:22.934Z,12.50
2023-02-27T01:48:50.562Z,11.25
2023-02-27T01:51:19.911Z,11.57
2023-02-27T01:53:49.301Z,11.30
2023-02-27T01:56:19.986Z,14.55
2023-02-27T01:58:48.857Z,12.35
2023-02-27T02:01:16.679Z,10.65
2023-02-27T02:03:48.870Z,11.43
2023-02-27T02:06:16.399Z,10.57
2023-02-27T02:08:49.304Z,13.65
2023-02-27T02:11:19.963Z,12.23
2023-02-27T02:13:49.844Z,12.80
2023-02-27T02:16:23.259Z,10.52
2023-02-27T02:18:54.989Z,11.98
2023-02-27T02:21:42.876Z,14.10
2023-02-27T02:24:25.839Z,14.93
2023-02-27T02:26:57.871Z,11.00
2023-02-27T02:29:40.241Z,9.40
2023-02-27T02:32:34.868Z,11.68
2023-02-27T02:35:28.625Z,11.00
2023-02-27T02:38:21.875Z,16.57
2023-02-27T02:40:54.806Z,12.48
2023-02-27T02:43:26.459Z,11.13
2023-02-27T02:45:59.154Z,10.55
2023-02-27T02:48:29.410Z,12.02
2023-02-27T02:51:02.592Z,10.20
2023-02-27T02:53:37.329Z,12.27
2023-02-27T02:56:07.477Z,9.88
2023-02-27T02:58:37.115Z,12.05
2023-02-27T03:01:10.222Z,9.60
2023-02-27T03:03:39.216Z,15.00
2023-02-27T03:06:08.965Z,12.73
2023-02-27T03:08:41.205Z,9.80
2023-02-27T03:11:08.948Z,14.38
2023-02-27T03:13:38.545Z,11.93
2023-02-27T03:16:09.004Z,13.07
2023-02-27T03:18:38.635Z,13.15
2023-02-27T03:21:08.405Z,11.27
2023-02-27T03:23:38.672Z,11.82
2023-02-27T03:26:08.001Z,9.20
2023-02-27T03:28:38.648Z,15.45
2023-02-27T03:31:10.485Z,11.73
2023-02-27T03:33:41.126Z,15.25
2023-02-27T03:36:10.741Z,10.40
2023-02-27T03:38:40.961Z,11.32
2023-02-27T03:41:13.587Z,11.52
2023-02-27T03:43:45.786Z,11.10
2023-02-27T03:46:14.752Z,12.75
2023-02-27T03:48:44.623Z,8.52
2023-02-27T03:51:12.981Z,13.65
2023-02-27T03:53:44.797Z,13.55
2023-02-27T03:56:15.197Z,13.52
2023-02-27T03:58:43.100Z,13.07
2023-02-27T04:01:10.662Z,13.88
2023-02-27T04:03:41.919Z,15.82
2023-02-27T04:06:23.438Z,14.43
2023-02-27T04:08:55.018Z,14.52
2023-02-27T04:11:40.205Z,11.40
2023-02-27T04:14:16.119Z,10.48
2023-02-27T04:16:51.332Z,11.23
2023-02-27T04:19:27.006Z,11.25
2023-02-27T04:22:00.323Z,10.40
2023-02-27T04:24:35.387Z,15.23
2023-02-27T04:27:06.937Z,13.20
2023-02-27T04:29:40.505Z,11.73
2023-02-27T04:32:14.308Z,12.32
2023-02-27T04:34:44.414Z,13.57
2023-02-27T04:37:13.803Z,12.20
2023-02-27T04:39:43.296Z,16.73
2023-02-27T04:42:13.012Z,13.98
2023-02-27T04:44:42.743Z,12.90
2023-02-27T04:47:11.525Z,13.75
2023-02-27T04:49:41.707Z,15.98
2023-02-27T04:52:11.523Z,13.88
2023-02-27T04:54:41.013Z,11.85
2023-02-27T04:57:10.590Z,15.13
2023-02-27T04:59:40.101Z,13.20
2023-02-27T05:02:13.273Z,13.00
2023-02-27T05:04:43.156Z,15.83
2023-02-27T05:07:13.304Z,13.43
2023-02-27T05:09:44.888Z,14.32
2023-02-27T05:12:16.011Z,16.90
2023-02-27T05:14:46.172Z,18.42
2023-02-27T05:17:16.047Z,12.80
2023-02-27T05:19:43.911Z,13.60
2023-02-27T05:22:18.612Z,16.30
2023-02-27T05:24:51.399Z,11.07
2023-02-27T05:27:21.297Z,12.85
2023-02-27T05:29:50.024Z,13.55
2023-02-27T05:32:23.794Z,16.25
2023-02-27T05:34:53.488Z,13.10
2023-02-27T05:37:22.985Z,16.83
2023-02-27T05:39:53.085Z,15.73
2023-02-27T05:42:23.294Z,14.57
2023-02-27T05:44:52.858Z,15.25
2023-02-27T05:47:23.008Z,17.50
2023-02-27T05:49:53.743Z,16.58
2023-02-27T05:52:23.559Z,14.60
2023-02-27T05:54:52.901Z,16.20
2023-02-27T05:57:24.128Z,12.40
2023-02-27T05:59:55.639Z,16.73
2023-02-27T06:02:24.864Z,14.13
2023-02-27T06:04:52.564Z,12.10
2023-02-27T06:07:21.072Z,13.18
2023-02-27T06:09:48.865Z,15.07
2023-02-27T06:12:16.772Z,16.50
2023-02-27T06:14:44.396Z,14.43
2023-02-27T06:17:11.984Z,14.73
2023-02-27T06:19:40.968Z,14.10
2023-02-27T06:22:08.517Z,15.32
2023-02-27T06:24:36.210Z,12.55
2023-02-27T06:27:03.786Z,16.83
2023-02-27T06:29:31.388Z,15.38
2023-02-27T06:31:59.501Z,21.25
2023-02-27T06:34:27.314Z,15.18
2023-02-27T06:36:56.258Z,16.13
2023-02-27T06:39:24.338Z,15.02
2023-02-27T06:41:51.976Z,20.20
2023-02-27T06:44:21.292Z,12.07
2023-02-27T06:46:48.857Z,12.98
2023-02-27T06:49:16.797Z,11.65
2023-02-27T06:51:45.150Z,15.40
2023-02-27T06:54:14.372Z,13.40
2023-02-27T06:56:41.851Z,14.95
2023-02-27T06:59:09.836Z,13.40
2023-02-27T07:01:37.745Z,13.13
2023-02-27T07:04:05.672Z,11.27
2023-02-27T07:07:34.046Z,12.07
2023-02-27T07:09:23.192Z,10.90
2023-02-27T07:11:50.775Z,14.95
2023-02-27T07:14:18.398Z,15.38
2023-02-27T07:16:47.168Z,14.75
2023-02-27T07:19:15.132Z,11.20
2023-02-27T07:21:42.640Z,11.98
2023-02-27T07:24:10.442Z,14.98
2023-02-27T07:26:39.388Z,17.17
2023-02-27T07:29:06.951Z,15.18
2023-02-27T07:31:35.749Z,12.70
2023-02-27T07:34:03.631Z,13.45
2023-02-27T07:36:31.594Z,11.63
2023-02-27T07:38:59.452Z,11.30
2023-02-27T07:41:30.705Z,9.45
2023-02-27T07:44:00.340Z,11.02
2023-02-27T07:46:28.592Z,9.85
2023-02-27T07:48:56.386Z,14.40
2023-02-27T07:51:24.028Z,10.73
2023-02-27T07:53:51.536Z,13.57
2023-02-27T07:56:19.884Z,10.93
2023-02-27T07:58:47.583Z,9.48
2023-02-27T08:01:16.552Z,7.60
2023-02-27T08:03:44.415Z,11.60
2023-02-27T08:06:12.014Z,9.05
2023-02-27T08:08:39.783Z,8.18
2023-02-27T08:11:07.564Z,14.98
2023-02-27T08:13:59.679Z,7.65
2023-02-27T08:16:25.118Z,11.98
2023-02-27T08:18:53.175Z,8.10
2023-02-27T08:21:20.923Z,9.77
2023-02-27T08:23:51.769Z,5.30
2023-02-27T08:26:21.061Z,8.00
2023-02-27T08:28:48.702Z,9.43
2023-02-27T08:31:16.465Z,7.80
2023-02-27T08:33:45.398Z,9.52
2023-02-27T08:36:13.012Z,9.05
2023-02-27T08:38:41.204Z,9.25
2023-02-27T08:41:08.968Z,6.18
2023-02-27T08:43:38.896Z,9.40
2023-02-27T08:46:06.843Z,7.38
2023-02-27T08:48:34.617Z,7.53
2023-02-27T08:51:03.495Z,5.63
2023-02-27T08:53:31.151Z,8.13
2023-02-27T08:55:58.829Z,7.78
2023-02-27T08:58:26.373Z,5.22
2023-02-27T09:00:53.947Z,9.98
2023-02-27T09:03:21.488Z,10.70
2023-02-27T09:05:49.869Z,6.80
2023-02-27T09:08:18.892Z,11.05
2023-02-27T09:10:46.477Z,6.13
2023-02-27T09:13:14.387Z,4.40
2023-02-27T09:15:41.948Z,5.97
2023-02-27T09:18:09.624Z,5.13
2023-02-27T09:20:37.240Z,6.85
2023-02-27T09:23:05.089Z,7.25
2023-02-27T09:25:34.099Z,6.78
2023-02-27T09:28:01.582Z,5.28
2023-02-27T09:30:29.393Z,5.03
2023-02-27T09:32:56.973Z,6.03
2023-02-27T09:35:25.762Z,8.10
2023-02-27T09:37:53.614Z,9.32
2023-02-27T09:40:24.033Z,7.28
2023-02-27T09:42:53.407Z,8.38
2023-02-27T09:45:24.269Z,6.40
2023-02-27T09:47:54.123Z,5.03
2023-02-27T09:50:42.704Z,7.28
2023-02-27T09:53:13.546Z,6.60
2023-02-27T09:55:42.596Z,7.60
2023-02-27T09:58:22.015Z,9.20
2023-02-27T10:00:50.463Z,6.28
2023-02-27T10:03:30.482Z,8.82
2023-02-27T10:06:07.259Z,4.30
2023-02-27T10:08:37.409Z,7.55
2023-02-27T10:11:06.335Z,6.57
2023-02-27T10:13:40.872Z,5.38
2023-02-27T10:16:11.585Z,9.40
2023-02-27T10:18:46.301Z,7.25
2023-02-27T10:21:15.837Z,5.45
2023-02-27T10:23:46.281Z,5.70
2023-02-27T10:26:19.443Z,9.60
2023-02-27T10:28:48.620Z,6.05
2023-02-27T10:31:20.170Z,8.05
2023-02-27T10:33:49.099Z,7.60
2023-02-27T10:36:32.410Z,5.35
2023-02-27T10:39:03.988Z,5.63
2023-02-27T10:41:34.354Z,6.70
2023-02-27T10:44:05.143Z,13.07
2023-02-27T10:46:36.756Z,7.05
2023-02-27T10:49:16.028Z,6.07
2023-02-27T10:51:44.910Z,7.47
2023-02-27T10:54:15.460Z,9.23
2023-02-27T10:56:44.865Z,7.10
2023-02-27T10:59:21.599Z,9.35
2023-02-27T11:01:50.493Z,5.97
2023-02-27T11:04:24.869Z,6.97
2023-02-27T11:06:53.740Z,9.40
2023-02-27T11:09:22.705Z,5.95
2023-02-27T11:11:50.516Z,5.78
2023-02-27T11:14:30.309Z,6.55
2023-02-27T11:16:58.678Z,6.97
2023-02-27T11:19:27.486Z,6.93
2023-02-27T11:22:07.192Z,4.70
2023-02-27T11:24:42.681Z,6.45
2023-02-27T11:27:20.889Z,6.38
2023-02-27T11:29:58.064Z,4.25
2023-02-27T11:32:27.402Z,6.63
2023-02-27T11:34:54.965Z,12.25
2023-02-27T11:37:25.081Z,7.88
2023-02-27T11:39:53.770Z,5.50
2023-02-27T11:42:24.787Z,9.65
2023-02-27T11:44:55.495Z,6.10
2023-02-27T11:47:27.923Z,5.82
2023-02-27T11:50:07.196Z,5.65
2023-02-27T11:52:38.142Z,9.60
2023-02-27T11:55:07.067Z,6.55
2023-02-27T11:57:38.161Z,7.53
2023-02-27T12:00:07.980Z,6.82
2023-02-27T12:02:44.517Z,11.20
2023-02-27T12:05:15.684Z,7.22
2023-02-27T12:07:46.055Z,6.43
2023-02-27T12:10:17.204Z,9.57
2023-02-27T12:12:48.127Z,9.18
2023-02-27T12:15:25.515Z,7.43
2023-02-27T12:20:53.530Z,6.10
2023-02-27T12:23:24.023Z,9.18
2023-02-27T12:25:52.744Z,9.15
2023-02-27T12:28:37.171Z,13.40
2023-02-27T12:33:37.732Z,9.07
2023-02-27T12:36:05.750Z,6.93
2023-02-27T12:38:36.117Z,12.32
2023-02-27T12:41:12.607Z,7.28
2023-02-27T12:43:45.848Z,8.57
2023-02-27T12:46:22.353Z,5.07
2023-02-27T12:48:59.627Z,9.60
2023-02-27T12:51:32.710Z,6.47
2023-02-27T12:54:04.982Z,7.90
2023-02-27T12:56:37.442Z,8.50
2023-02-27T12:59:08.378Z,5.57
2023-02-27T13:01:40.664Z,7.03
2023-02-27T13:04:17.264Z,8.52
2023-02-27T13:06:48.508Z,7.65
2023-02-27T13:09:20.833Z,7.00
2023-02-27T13:11:54.409Z,17.83
2023-02-27T13:14:28.119Z,9.55
2023-02-27T13:16:58.307Z,8.73
2023-02-27T13:19:29.688Z,10.70
2023-02-27T13:21:59.242Z,8.13
2023-02-27T13:24:28.173Z,6.40
2023-02-27T13:26:58.895Z,6.03
2023-02-27T13:29:35.451Z,9.30
2023-02-27T13:32:06.686Z,8.27
2023-02-27T13:37:46.350Z,8.13
2023-02-27T13:40:29.860Z,6.63
2023-02-27T13:42:58.861Z,9.93
2023-02-27T13:45:45.062Z,11.15
2023-02-27T13:48:31.449Z,4.75
2023-02-27T13:51:01.144Z,7.25
2023-02-27T13:53:29.489Z,5.82
2023-02-27T13:56:00.175Z,5.97
2023-02-27T13:58:27.763Z,5.82
2023-02-27T14:03:56.691Z,12.45
2023-02-27T14:06:26.278Z,6.35
2023-02-27T14:09:12.888Z,6.47
2023-02-27T14:11:52.380Z,7.32
2023-02-27T14:17:44.927Z,8.88
2023-02-27T14:20:13.848Z,6.72
2023-02-27T14:26:27.585Z,6.10
2023-02-27T14:28:58.227Z,7.32
2023-02-27T14:31:27.741Z,6.93
2023-02-27T14:33:56.620Z,5.63
2023-02-27T14:36:25.735Z,4.43
2023-02-27T14:38:57.694Z,6.15
2023-02-27T14:41:32.154Z,7.22
2023-02-27T14:46:57.597Z,6.75
2023-02-27T14:49:27.303Z,5.53
2023-02-27T14:51:55.442Z,4.50
2023-02-27T14:57:17.591Z,6.88
2023-02-27T14:59:46.874Z,4.93
2023-02-27T15:02:21.650Z,7.15
2023-02-27T15:04:50.560Z,8.52
2023-02-27T15:07:20.131Z,5.07
2023-02-27T15:09:51.604Z,5.40
2023-02-27T15:12:20.475Z,6.32
2023-02-27T15:14:48.839Z,6.72
2023-02-27T15:17:41.495Z,5.30
2023-02-27T15:20:23.609Z,9.57
2023-02-27T15:22:51.770Z,9.10
2023-02-27T15:25:32.337Z,7.40
2023-02-27T15:28:02.762Z,7.47
2023-02-27T15:30:30.878Z,5.32
2023-02-27T15:32:59.079Z,8.65
2023-02-27T15:35:28.992Z,7.40
2023-02-27T15:37:58.867Z,9.52
2023-02-27T15:40:30.587Z,4.28
2023-02-27T15:43:00.130Z,5.65
2023-02-27T15:45:29.892Z,5.60
2023-02-27T15:47:57.647Z,5.80
2023-02-27T15:50:27.060Z,6.05
2023-02-27T15:52:55.826Z,6.60
2023-02-27T15:55:25.796Z,9.27
2023-02-27T15:58:02.750Z,7.20
2023-02-27T16:00:32.950Z,6.82
2023-02-27T16:05:42.879Z,8.13
2023-02-27T16:08:29.605Z,6.05
2023-02-27T16:10:58.246Z,8.43
2023-02-27T16:13:35.904Z,8.93
2023-02-27T16:16:06.334Z,6.43
2023-02-27T16:18:35.525Z,14.10
2023-02-27T16:21:11.333Z,9.88
2023-02-27T16:23:40.188Z,11.10
2023-02-27T16:26:18.477Z,7.20
2023-02-27T16:28:51.891Z,7.68
2023-02-27T16:31:24.453Z,9.45
2023-02-27T16:33:52.380Z,10.75
2023-02-27T16:36:21.152Z,18.13
2023-02-27T16:38:49.075Z,8.80
2023-02-27T16:41:17.418Z,8.35
2023-02-27T16:43:46.168Z,7.85
2023-02-27T16:46:16.672Z,10.43
2023-02-27T16:48:45.660Z,10.43
2023-02-27T16:51:17.617Z,9.88
2023-02-27T16:53:45.693Z,12.52
2023-02-27T16:56:13.616Z,9.35
2023-02-27T16:58:41.161Z,10.32
2023-02-27T17:01:08.897Z,14.20
2023-02-27T17:03:36.408Z,11.48
2023-02-27T17:06:05.692Z,14.60
2023-02-27T17:08:33.257Z,20.60
2023-02-27T17:11:00.746Z,11.68
2023-02-27T17:13:28.271Z,9.45
2023-02-27T17:15:55.824Z,13.68
2023-02-27T17:18:34.609Z,13.55
2023-02-27T17:21:11.257Z,5.97
2023-02-27T17:23:40.130Z,12.90
2023-02-27T17:26:13.753Z,8.30
2023-02-27T17:28:41.385Z,9.10
2023-02-27T17:31:09.183Z,8.75
2023-02-27T17:33:38.696Z,8.43
2023-02-27T17:36:07.720Z,10.68
2023-02-27T17:38:44.087Z,9.68
2023-02-27T17:41:12.730Z,12.40
2023-02-27T17:43:42.633Z,12.27
2023-02-27T17:46:11.204Z,13.35
2023-02-27T17:48:39.588Z,14.55
2023-02-27T17:51:08.712Z,11.13
2023-02-27T17:53:37.096Z,17.27
2023-02-27T17:56:07.794Z,12.25
2023-02-27T17:58:35.898Z,14.02
2023-02-27T18:01:07.117Z,11.63
2023-02-27T18:03:35.317Z,13.20
2023-02-27T18:06:03.315Z,12.15
2023-02-27T18:08:31.418Z,16.10
2023-02-27T18:10:59.512Z,13.10
2023-02-27T18:13:28.803Z,15.40
2023-02-27T18:15:56.695Z,19.58
2023-02-27T18:18:24.525Z,12.40
2023-02-27T18:21:00.717Z,16.42
2023-02-27T18:23:28.642Z,15.40
2023-02-27T18:25:56.601Z,16.13
2023-02-27T18:28:24.274Z,9.90
2023-02-27T18:30:54.901Z,12.45
2023-02-27T18:33:23.583Z,13.40
2023-02-27T18:35:58.183Z,14.80
2023-02-27T18:38:25.922Z,11.20
2023-02-27T18:40:56.166Z,17.45
2023-02-27T18:43:23.886Z,12.15
2023-02-27T18:45:53.117Z,11.52
2023-02-27T18:48:20.958Z,11.25
2023-02-27T18:50:48.633Z,12.77
2023-02-27T18:53:16.210Z,14.27
2023-02-27T18:55:43.825Z,9.93
2023-02-27T19:01:05.071Z,8.25
2023-02-27T19:03:33.104Z,12.15
2023-02-27T19:06:03.675Z,9.70
2023-02-27T19:08:31.669Z,13.35
2023-02-27T19:10:59.828Z,12.68
2023-02-27T19:13:27.538Z,13.85
2023-02-27T19:15:55.809Z,12.90
2023-02-27T19:18:25.163Z,13.75
2023-02-27T19:20:52.711Z,11.63
2023-02-27T19:23:20.390Z,12.23
2023-02-27T19:25:48.987Z,11.77
2023-02-27T19:28:17.761Z,11.55
2023-02-27T19:30:45.247Z,11.40
2023-02-27T19:33:12.929Z,17.85
2023-02-27T19:35:43.547Z,9.98
2023-02-27T19:38:11.551Z,7.78
2023-02-27T19:40:39.102Z,10.93
2023-02-27T19:43:09.055Z,13.10
2023-02-27T19:45:40.852Z,8.68
2023-02-27T19:48:08.562Z,12.90
2023-02-27T19:50:36.974Z,10.32
2023-02-27T19:53:05.922Z,8.20
2023-02-27T19:55:34.083Z,9.07
2023-02-27T19:58:01.685Z,8.10
2023-02-27T20:00:29.746Z,8.93
2023-02-27T20:02:57.872Z,9.65
2023-02-27T20:05:25.544Z,13.85
2023-02-27T20:07:53.149Z,12.68
2023-02-27T20:10:22.413Z,9.82
2023-02-27T20:12:49.912Z,8.02
2023-02-27T20:15:17.484Z,9.93
2023-02-27T20:17:45.574Z,9.63
2023-02-27T20:20:13.843Z,8.68
2023-02-27T20:22:43.321Z,9.10
2023-02-27T20:25:11.621Z,13.32
2023-02-27T20:27:40.536Z,20.02
2023-02-27T20:30:10.540Z,8.27
2023-02-27T20:32:38.309Z,12.27
2023-02-27T20:35:06.579Z,10.27
2023-02-27T20:37:35.515Z,10.82
2023-02-27T20:40:04.201Z,9.48
2023-02-27T20:42:32.120Z,12.30
2023-02-27T20:45:01.200Z,8.95
2023-02-27T20:47:29.479Z,10.25
2023-02-27T20:49:57.118Z,8.38
2023-02-27T20:55:16.200Z,9.32
2023-02-27T20:57:43.873Z,9.45
2023-02-27T21:00:15.361Z,8.93
2023-02-27T21:02:43.294Z,10.57
2023-02-27T21:05:14.205Z,6.80
2023-02-27T21:07:42.465Z,10.95
2023-02-27T21:10:10.996Z,12.65
2023-02-27T21:12:40.522Z,9.00
2023-02-27T21:15:08.772Z,12.10
2023-02-27T21:17:38.008Z,8.60
2023-02-27T21:20:06.850Z,14.05
2023-02-27T21:22:35.996Z,9.32
2023-02-27T21:25:04.140Z,7.18
2023-02-27T21:27:32.293Z,9.50
2023-02-27T21:29:59.796Z,7.75
2023-02-27T21:32:27.639Z,8.18
2023-02-27T21:34:56.589Z,9.40
2023-02-27T21:37:24.148Z,9.07
2023-02-27T21:39:55.421Z,7.60
2023-02-27T21:42:23.253Z,9.38
2023-02-27T21:44:50.972Z,8.30
2023-02-27T21:47:19.164Z,6.68
2023-02-27T21:49:46.777Z,13.63
2023-02-27T21:52:15.813Z,8.48
2023-02-27T21:54:43.431Z,9.07
2023-02-27T21:57:11.050Z,7.72
2023-02-27T21:59:39.000Z,5.65
2023-02-27T22:02:06.531Z,8.82
2023-02-27T22:04:34.117Z,7.60
2023-02-27T22:07:02.080Z,9.80
2023-02-27T22:12:23.352Z,6.20
2023-02-27T22:14:51.142Z,7.13
2023-02-27T22:17:18.693Z,8.95
2023-02-27T22:22:39.306Z,9.63
2023-02-27T22:25:08.608Z,7.75
2023-02-27T22:27:36.236Z,5.80
2023-02-27T22:30:04.436Z,10.90
2023-02-27T22:32:32.172Z,6.05
2023-02-27T22:35:00.118Z,9.98
2023-02-27T22:40:21.197Z,8.13
2023-02-27T22:42:49.054Z,8.07
2023-02-27T22:45:16.706Z,6.95
2023-02-27T22:47:44.232Z,10.38
2023-02-27T22:50:12.446Z,8.02
2023-02-27T22:52:40.040Z,11.15
2023-02-27T22:55:08.095Z,9.20
2023-02-27T22:57:37.054Z,9.52
2023-02-27T23:00:05.877Z,8.93
2023-02-27T23:02:33.946Z,10.68
2023-02-27T23:05:01.785Z,8.80
2023-02-27T23:07:29.302Z,8.43
2023-02-27T23:12:50.064Z,7.40
2023-02-27T23:15:17.697Z,8.07
2023-02-27T23:17:57.632Z,11.27
2023-02-27T23:20:26.022Z,6.18
2023-02-27T23:22:53.610Z,9.32
2023-02-27T23:25:21.105Z,6.20
2023-02-27T23:27:49.917Z,7.75
2023-02-27T23:30:17.732Z,10.70
2023-02-27T23:32:45.799Z,7.45
2023-02-27T23:35:15.042Z,8.50
2023-02-27T23:37:42.605Z,7.95
2023-02-27T23:40:11.954Z,10.40
2023-02-27T23:42:39.741Z,10.35
2023-02-27T23:45:12.326Z,11.45
2023-02-27T23:47:42.810Z,9.73
2023-02-27T23:50:11.526Z,18.52
2023-02-27T23:52:39.096Z,7.38
2023-02-27T23:55:07.491Z,8.23
2023-02-27T23:57:35.018Z,9.10
